sensor_id;sensor_type;location;lat;lon;timestamp;P1;durP1;ratioP1;P2;durP2;ratioP2
40807;SDS011;26523;52.504;13.498;2023-12-04T00:00:26;29.02;;;9.93;;
40807;SDS011;26523;52.504;13.498;2023-12-04T00:02:52;20.73;;;6.32;;
40807;SDS011;26523;52.504;13.498;2023-12-04T00:05:18;22.48;;;8.50;;
40807;SDS011;26523;52.504;13.498;2023-12-04T00:07:44;22.33;;;8.38;;
40807;SDS011;26523;52.504;13.498;2023-12-04T00:10:09;25.38;;;9.68;;
40807;SDS011;26523;52.504;13.498;2023-12-04T00:12:35;27.50;;;9.25;;
40807;SDS011;26523;52.504;13.498;2023-12-04T00:15:01;25.17;;;8.98;;
40807;SDS011;26523;52.504;13.498;2023-12-04T00:17:26;21.48;;;8.35;;
40807;SDS011;26523;52.504;13.498;2023-12-04T00:19:52;28.08;;;8.20;;
40807;SDS011;26523;52.504;13.498;2023-12-04T00:22:17;23.35;;;8.35;;
40807;SDS011;26523;52.504;13.498;2023-12-04T00:24:43;27.88;;;8.93;;
40807;SDS011;26523;52.504;13.498;2023-12-04T00:27:09;34.08;;;9.02;;
40807;SDS011;26523;52.504;13.498;2023-12-04T00:29:35;26.33;;;9.60;;
40807;SDS011;26523;52.504;13.498;2023-12-04T00:32:00;22.35;;;8.00;;
40807;SDS011;26523;52.504;13.498;2023-12-04T00:34:26;29.02;;;9.43;;
40807;SDS011;26523;52.504;13.498;2023-12-04T00:36:51;24.13;;;7.55;;
40807;SDS011;26523;52.504;13.498;2023-12-04T00:39:17;21.35;;;8.85;;
40807;SDS011;26523;52.504;13.498;2023-12-04T00:41:43;20.23;;;8.07;;
40807;SDS011;26523;52.504;13.498;2023-12-04T00:44:08;19.23;;;7.07;;
40807;SDS011;26523;52.504;13.498;2023-12-04T00:46:34;22.00;;;8.55;;
40807;SDS011;26523;52.504;13.498;2023-12-04T00:48:59;25.38;;;8.52;;
40807;SDS011;26523;52.504;13.498;2023-12-04T00:51:25;17.75;;;8.38;;
40807;SDS011;26523;52.504;13.498;2023-12-04T00:53:51;30.50;;;9.88;;
40807;SDS011;26523;52.504;13.498;2023-12-04T00:56:18;22.10;;;9.05;;
40807;SDS011;26523;52.504;13.498;2023-12-04T00:58:45;21.35;;;9.13;;
40807;SDS011;26523;52.504;13.498;2023-12-04T01:01:11;23.67;;;9.45;;
40807;SDS011;26523;52.504;13.498;2023-12-04T01:03:37;21.38;;;8.43;;
40807;SDS011;26523;52.504;13.498;2023-12-04T01:06:03;23.48;;;8.43;;
40807;SDS011;26523;52.504;13.498;2023-12-04T01:08:29;25.10;;;8.63;;
40807;SDS011;26523;52.504;13.498;2023-12-04T01:10:54;26.48;;;8.80;;
40807;SDS011;26523;52.504;13.498;2023-12-04T01:13:20;28.73;;;10.07;;
40807;SDS011;26523;52.504;13.498;2023-12-04T01:15:45;25.23;;;9.45;;
40807;SDS011;26523;52.504;13.498;2023-12-04T01:18:13;26.02;;;10.25;;
40807;SDS011;26523;52.504;13.498;2023-12-04T01:20:39;24.90;;;9.18;;
40807;SDS011;26523;52.504;13.498;2023-12-04T01:23:05;20.63;;;7.78;;
40807;SDS011;26523;52.504;13.498;2023-12-04T01:25:33;24.95;;;8.88;;
40807;SDS011;26523;52.504;13.498;2023-12-04T01:27:59;26.10;;;8.75;;
40807;SDS011;26523;52.504;13.498;2023-12-04T01:30:25;29.42;;;10.90;;
40807;SDS011;26523;52.504;13.498;2023-12-04T01:32:50;28.48;;;9.60;;
40807;SDS011;26523;52.504;13.498;2023-12-04T01:35:16;26.17;;;8.55;;
40807;SDS011;26523;52.504;13.498;2023-12-04T01:37:41;29.88;;;10.02;;
40807;SDS011;26523;52.504;13.498;2023-12-04T01:40:07;22.20;;;8.77;;
40807;SDS011;26523;52.504;13.498;2023-12-04T01:42:34;18.02;;;7.10;;
40807;SDS011;26523;52.504;13.498;2023-12-04T01:44:59;21.52;;;8.98;;
40807;SDS011;26523;52.504;13.498;2023-12-04T01:47:25;21.23;;;8.68;;
40807;SDS011;26523;52.504;13.498;2023-12-04T01:49:50;24.45;;;9.10;;
40807;SDS011;26523;52.504;13.498;2023-12-04T01:52:16;24.83;;;8.27;;
40807;SDS011;26523;52.504;13.498;2023-12-04T01:54:42;28.80;;;9.32;;
40807;SDS011;26523;52.504;13.498;2023-12-04T01:57:09;27.10;;;10.05;;
40807;SDS011;26523;52.504;13.498;2023-12-04T01:59:35;24.73;;;10.25;;
40807;SDS011;26523;52.504;13.498;2023-12-04T02:02:01;25.08;;;10.25;;
40807;SDS011;26523;52.504;13.498;2023-12-04T02:04:27;26.35;;;9.27;;
40807;SDS011;26523;52.504;13.498;2023-12-04T02:06:53;20.10;;;8.02;;
40807;SDS011;26523;52.504;13.498;2023-12-04T02:09:19;28.60;;;9.27;;
40807;SDS011;26523;52.504;13.498;2023-12-04T02:11:45;20.38;;;7.30;;
40807;SDS011;26523;52.504;13.498;2023-12-04T02:14:10;22.10;;;7.82;;
40807;SDS011;26523;52.504;13.498;2023-12-04T02:16:38;30.95;;;10.38;;
40807;SDS011;26523;52.504;13.498;2023-12-04T02:19:12;24.33;;;9.02;;
40807;SDS011;26523;52.504;13.498;2023-12-04T02:21:38;23.42;;;8.95;;
40807;SDS011;26523;52.504;13.498;2023-12-04T02:24:04;24.98;;;7.93;;
40807;SDS011;26523;52.504;13.498;2023-12-04T02:26:31;24.45;;;9.00;;
40807;SDS011;26523;52.504;13.498;2023-12-04T02:29:08;25.95;;;9.00;;
40807;SDS011;26523;52.504;13.498;2023-12-04T02:31:40;21.67;;;8.45;;
40807;SDS011;26523;52.504;13.498;2023-12-04T02:34:08;26.08;;;8.77;;
40807;SDS011;26523;52.504;13.498;2023-12-04T02:36:35;26.80;;;9.32;;
40807;SDS011;26523;52.504;13.498;2023-12-04T02:39:02;33.05;;;11.00;;
40807;SDS011;26523;52.504;13.498;2023-12-04T02:41:29;35.15;;;9.80;;
40807;SDS011;26523;52.504;13.498;2023-12-04T02:43:55;23.23;;;8.65;;
40807;SDS011;26523;52.504;13.498;2023-12-04T02:46:20;29.90;;;9.73;;
40807;SDS011;26523;52.504;13.498;2023-12-04T02:48:46;28.35;;;11.00;;
40807;SDS011;26523;52.504;13.498;2023-12-04T02:51:12;24.88;;;11.18;;
40807;SDS011;26523;52.504;13.498;2023-12-04T02:53:37;28.65;;;9.73;;
40807;SDS011;26523;52.504;13.498;2023-12-04T02:56:03;27.40;;;8.70;;
40807;SDS011;26523;52.504;13.498;2023-12-04T02:58:29;26.13;;;9.27;;
40807;SDS011;26523;52.504;13.498;2023-12-04T03:00:55;24.52;;;9.10;;
40807;SDS011;26523;52.504;13.498;2023-12-04T03:03:22;30.17;;;10.07;;
40807;SDS011;26523;52.504;13.498;2023-12-04T03:05:48;30.88;;;9.65;;
40807;SDS011;26523;52.504;13.498;2023-12-04T03:08:13;33.05;;;10.82;;
40807;SDS011;26523;52.504;13.498;2023-12-04T03:10:39;22.13;;;9.13;;
40807;SDS011;26523;52.504;13.498;2023-12-04T03:13:05;24.83;;;9.80;;
40807;SDS011;26523;52.504;13.498;2023-12-04T03:15:30;27.23;;;8.98;;
40807;SDS011;26523;52.504;13.498;2023-12-04T03:17:57;26.70;;;9.57;;
40807;SDS011;26523;52.504;13.498;2023-12-04T03:20:24;21.70;;;8.95;;
40807;SDS011;26523;52.504;13.498;2023-12-04T03:22:50;24.85;;;10.02;;
40807;SDS011;26523;52.504;13.498;2023-12-04T03:25:15;22.63;;;8.32;;
40807;SDS011;26523;52.504;13.498;2023-12-04T03:27:41;32.28;;;9.13;;
40807;SDS011;26523;52.504;13.498;2023-12-04T03:30:07;24.23;;;10.45;;
40807;SDS011;26523;52.504;13.498;2023-12-04T03:32:33;23.52;;;9.15;;
40807;SDS011;26523;52.504;13.498;2023-12-04T03:34:58;27.92;;;9.65;;
40807;SDS011;26523;52.504;13.498;2023-12-04T03:37:24;25.90;;;9.10;;
40807;SDS011;26523;52.504;13.498;2023-12-04T03:39:50;20.30;;;7.95;;
40807;SDS011;26523;52.504;13.498;2023-12-04T03:42:16;27.58;;;10.00;;
40807;SDS011;26523;52.504;13.498;2023-12-04T03:44:41;25.92;;;10.27;;
40807;SDS011;26523;52.504;13.498;2023-12-04T03:47:07;22.25;;;9.07;;
40807;SDS011;26523;52.504;13.498;2023-12-04T03:49:32;32.40;;;9.20;;
40807;SDS011;26523;52.504;13.498;2023-12-04T03:51:58;26.15;;;10.10;;
40807;SDS011;26523;52.504;13.498;2023-12-04T03:54:24;28.50;;;10.27;;
40807;SDS011;26523;52.504;13.498;2023-12-04T03:56:49;24.17;;;8.60;;
40807;SDS011;26523;52.504;13.498;2023-12-04T03:59:15;24.70;;;9.68;;
40807;SDS011;26523;52.504;13.498;2023-12-04T04:01:41;28.45;;;9.80;;
40807;SDS011;26523;52.504;13.498;2023-12-04T04:04:06;27.55;;;10.13;;
40807;SDS011;26523;52.504;13.498;2023-12-04T04:06:32;29.80;;;10.10;;
40807;SDS011;26523;52.504;13.498;2023-12-04T04:08:57;32.22;;;10.23;;
40807;SDS011;26523;52.504;13.498;2023-12-04T04:11:23;26.15;;;10.38;;
40807;SDS011;26523;52.504;13.498;2023-12-04T04:13:49;23.10;;;8.48;;
40807;SDS011;26523;52.504;13.498;2023-12-04T04:16:15;24.50;;;8.13;;
40807;SDS011;26523;52.504;13.498;2023-12-04T04:18:41;21.38;;;9.57;;
40807;SDS011;26523;52.504;13.498;2023-12-04T04:21:08;27.77;;;9.88;;
40807;SDS011;26523;52.504;13.498;2023-12-04T04:23:34;28.95;;;8.52;;
40807;SDS011;26523;52.504;13.498;2023-12-04T04:25:59;26.67;;;9.68;;
40807;SDS011;26523;52.504;13.498;2023-12-04T04:28:25;28.48;;;8.98;;
40807;SDS011;26523;52.504;13.498;2023-12-04T04:30:50;28.88;;;8.82;;
40807;SDS011;26523;52.504;13.498;2023-12-04T04:33:16;30.52;;;10.05;;
40807;SDS011;26523;52.504;13.498;2023-12-04T04:35:42;23.73;;;8.05;;
40807;SDS011;26523;52.504;13.498;2023-12-04T04:38:08;25.77;;;9.48;;
40807;SDS011;26523;52.504;13.498;2023-12-04T04:40:34;25.77;;;9.80;;
40807;SDS011;26523;52.504;13.498;2023-12-04T04:43:00;27.95;;;8.60;;
40807;SDS011;26523;52.504;13.498;2023-12-04T04:45:26;28.42;;;9.93;;
40807;SDS011;26523;52.504;13.498;2023-12-04T04:47:53;28.67;;;9.18;;
40807;SDS011;26523;52.504;13.498;2023-12-04T04:50:18;17.25;;;7.50;;
40807;SDS011;26523;52.504;13.498;2023-12-04T04:52:44;23.67;;;8.05;;
40807;SDS011;26523;52.504;13.498;2023-12-04T04:55:09;19.73;;;8.98;;
40807;SDS011;26523;52.504;13.498;2023-12-04T04:57:35;26.90;;;10.73;;
40807;SDS011;26523;52.504;13.498;2023-12-04T05:00:01;20.55;;;7.95;;
40807;SDS011;26523;52.504;13.498;2023-12-04T05:02:26;30.05;;;8.90;;
40807;SDS011;26523;52.504;13.498;2023-12-04T05:04:52;25.98;;;9.05;;
40807;SDS011;26523;52.504;13.498;2023-12-04T05:07:17;22.23;;;7.10;;
40807;SDS011;26523;52.504;13.498;2023-12-04T05:09:43;26.15;;;8.90;;
40807;SDS011;26523;52.504;13.498;2023-12-04T05:12:09;18.92;;;8.98;;
40807;SDS011;26523;52.504;13.498;2023-12-04T05:14:34;20.42;;;8.95;;
40807;SDS011;26523;52.504;13.498;2023-12-04T05:17:00;23.13;;;9.02;;
40807;SDS011;26523;52.504;13.498;2023-12-04T05:19:26;26.02;;;10.13;;
40807;SDS011;26523;52.504;13.498;2023-12-04T05:21:51;23.23;;;9.93;;
40807;SDS011;26523;52.504;13.498;2023-12-04T05:24:17;27.77;;;9.43;;
40807;SDS011;26523;52.504;13.498;2023-12-04T05:26:43;28.27;;;8.70;;
40807;SDS011;26523;52.504;13.498;2023-12-04T05:29:08;28.95;;;8.88;;
40807;SDS011;26523;52.504;13.498;2023-12-04T05:31:34;25.75;;;9.55;;
40807;SDS011;26523;52.504;13.498;2023-12-04T05:33:59;19.23;;;6.50;;
40807;SDS011;26523;52.504;13.498;2023-12-04T05:36:25;28.38;;;9.85;;
40807;SDS011;26523;52.504;13.498;2023-12-04T05:38:52;23.60;;;8.43;;
40807;SDS011;26523;52.504;13.498;2023-12-04T05:41:18;29.55;;;9.45;;
40807;SDS011;26523;52.504;13.498;2023-12-04T05:43:44;19.63;;;7.75;;
40807;SDS011;26523;52.504;13.498;2023-12-04T05:46:10;22.67;;;8.43;;
40807;SDS011;26523;52.504;13.498;2023-12-04T05:48:35;20.85;;;8.50;;
40807;SDS011;26523;52.504;13.498;2023-12-04T05:51:01;18.70;;;8.45;;
40807;SDS011;26523;52.504;13.498;2023-12-04T05:53:27;26.35;;;9.70;;
40807;SDS011;26523;52.504;13.498;2023-12-04T05:55:54;21.48;;;8.13;;
40807;SDS011;26523;52.504;13.498;2023-12-04T05:58:19;25.80;;;8.95;;
40807;SDS011;26523;52.504;13.498;2023-12-04T06:00:45;24.52;;;10.18;;
40807;SDS011;26523;52.504;13.498;2023-12-04T06:03:10;22.58;;;7.68;;
40807;SDS011;26523;52.504;13.498;2023-12-04T06:05:36;23.23;;;9.02;;
40807;SDS011;26523;52.504;13.498;2023-12-04T06:08:02;28.35;;;8.63;;
40807;SDS011;26523;52.504;13.498;2023-12-04T06:10:28;22.50;;;7.97;;
40807;SDS011;26523;52.504;13.498;2023-12-04T06:12:53;26.23;;;9.88;;
40807;SDS011;26523;52.504;13.498;2023-12-04T06:15:19;20.40;;;8.70;;
40807;SDS011;26523;52.504;13.498;2023-12-04T06:17:45;18.83;;;7.70;;
40807;SDS011;26523;52.504;13.498;2023-12-04T06:20:10;20.48;;;8.30;;
40807;SDS011;26523;52.504;13.498;2023-12-04T06:22:36;22.75;;;7.47;;
40807;SDS011;26523;52.504;13.498;2023-12-04T06:25:02;28.25;;;8.63;;
40807;SDS011;26523;52.504;13.498;2023-12-04T06:27:28;20.90;;;7.18;;
40807;SDS011;26523;52.504;13.498;2023-12-04T06:29:54;21.73;;;8.55;;
40807;SDS011;26523;52.504;13.498;2023-12-04T06:32:20;21.40;;;8.23;;
40807;SDS011;26523;52.504;13.498;2023-12-04T06:34:46;28.65;;;10.40;;
40807;SDS011;26523;52.504;13.498;2023-12-04T06:37:12;24.55;;;9.02;;
40807;SDS011;26523;52.504;13.498;2023-12-04T06:39:39;23.75;;;9.77;;
40807;SDS011;26523;52.504;13.498;2023-12-04T06:42:06;20.73;;;8.77;;
40807;SDS011;26523;52.504;13.498;2023-12-04T06:44:32;21.08;;;8.63;;
40807;SDS011;26523;52.504;13.498;2023-12-04T06:46:59;20.85;;;7.95;;
40807;SDS011;26523;52.504;13.498;2023-12-04T06:49:27;22.60;;;7.95;;
40807;SDS011;26523;52.504;13.498;2023-12-04T06:51:56;21.20;;;8.23;;
40807;SDS011;26523;52.504;13.498;2023-12-04T06:54:22;27.13;;;9.73;;
40807;SDS011;26523;52.504;13.498;2023-12-04T06:56:47;30.77;;;9.52;;
40807;SDS011;26523;52.504;13.498;2023-12-04T06:59:13;19.08;;;8.27;;
40807;SDS011;26523;52.504;13.498;2023-12-04T07:01:38;22.63;;;8.13;;
40807;SDS011;26523;52.504;13.498;2023-12-04T07:04:04;27.70;;;10.75;;
40807;SDS011;26523;52.504;13.498;2023-12-04T07:06:35;29.45;;;9.32;;
40807;SDS011;26523;52.504;13.498;2023-12-04T07:09:01;25.40;;;8.48;;
40807;SDS011;26523;52.504;13.498;2023-12-04T07:11:27;22.98;;;7.70;;
40807;SDS011;26523;52.504;13.498;2023-12-04T07:13:52;25.90;;;7.72;;
40807;SDS011;26523;52.504;13.498;2023-12-04T07:16:18;24.05;;;7.93;;
40807;SDS011;26523;52.504;13.498;2023-12-04T07:18:44;18.80;;;7.60;;
40807;SDS011;26523;52.504;13.498;2023-12-04T07:21:09;22.77;;;9.30;;
40807;SDS011;26523;52.504;13.498;2023-12-04T07:23:35;35.17;;;7.80;;
40807;SDS011;26523;52.504;13.498;2023-12-04T07:26:01;18.45;;;8.23;;
40807;SDS011;26523;52.504;13.498;2023-12-04T07:28:26;24.75;;;9.90;;
40807;SDS011;26523;52.504;13.498;2023-12-04T07:30:53;19.63;;;7.63;;
40807;SDS011;26523;52.504;13.498;2023-12-04T07:33:19;22.40;;;8.90;;
40807;SDS011;26523;52.504;13.498;2023-12-04T07:35:45;25.48;;;8.43;;
40807;SDS011;26523;52.504;13.498;2023-12-04T07:38:11;20.60;;;7.63;;
40807;SDS011;26523;52.504;13.498;2023-12-04T07:40:37;19.88;;;7.45;;
40807;SDS011;26523;52.504;13.498;2023-12-04T07:43:03;19.73;;;8.13;;
40807;SDS011;26523;52.504;13.498;2023-12-04T07:45:28;22.83;;;8.18;;
40807;SDS011;26523;52.504;13.498;2023-12-04T07:47:54;27.02;;;8.68;;
40807;SDS011;26523;52.504;13.498;2023-12-04T07:50:20;20.90;;;8.05;;
40807;SDS011;26523;52.504;13.498;2023-12-04T07:52:45;17.48;;;8.10;;
40807;SDS011;26523;52.504;13.498;2023-12-04T07:55:11;21.52;;;8.05;;
40807;SDS011;26523;52.504;13.498;2023-12-04T07:57:37;16.38;;;6.90;;
40807;SDS011;26523;52.504;13.498;2023-12-04T08:00:03;24.20;;;8.57;;
40807;SDS011;26523;52.504;13.498;2023-12-04T08:02:29;22.10;;;8.82;;
40807;SDS011;26523;52.504;13.498;2023-12-04T08:04:55;22.98;;;8.80;;
40807;SDS011;26523;52.504;13.498;2023-12-04T08:07:21;26.70;;;9.73;;
40807;SDS011;26523;52.504;13.498;2023-12-04T08:09:47;26.48;;;7.97;;
40807;SDS011;26523;52.504;13.498;2023-12-04T08:12:12;19.70;;;7.70;;
40807;SDS011;26523;52.504;13.498;2023-12-04T08:14:38;18.38;;;7.85;;
40807;SDS011;26523;52.504;13.498;2023-12-04T08:17:03;20.13;;;7.65;;
40807;SDS011;26523;52.504;13.498;2023-12-04T08:19:29;19.45;;;7.38;;
40807;SDS011;26523;52.504;13.498;2023-12-04T08:21:55;24.73;;;8.35;;
40807;SDS011;26523;52.504;13.498;2023-12-04T08:24:20;22.58;;;8.13;;
40807;SDS011;26523;52.504;13.498;2023-12-04T08:26:46;17.17;;;8.25;;
40807;SDS011;26523;52.504;13.498;2023-12-04T08:29:12;19.33;;;7.45;;
40807;SDS011;26523;52.504;13.498;2023-12-04T08:31:37;21.50;;;7.80;;
40807;SDS011;26523;52.504;13.498;2023-12-04T08:34:03;21.58;;;8.43;;
40807;SDS011;26523;52.504;13.498;2023-12-04T08:36:29;24.65;;;9.65;;
40807;SDS011;26523;52.504;13.498;2023-12-04T08:38:55;23.42;;;7.57;;
40807;SDS011;26523;52.504;13.498;2023-12-04T08:41:20;26.33;;;8.57;;
40807;SDS011;26523;52.504;13.498;2023-12-04T08:43:46;19.67;;;7.82;;
40807;SDS011;26523;52.504;13.498;2023-12-04T08:46:14;19.70;;;7.35;;
40807;SDS011;26523;52.504;13.498;2023-12-04T08:48:40;25.08;;;7.70;;
40807;SDS011;26523;52.504;13.498;2023-12-04T08:51:07;20.45;;;7.57;;
40807;SDS011;26523;52.504;13.498;2023-12-04T08:53:33;20.33;;;6.97;;
40807;SDS011;26523;52.504;13.498;2023-12-04T08:55:59;21.83;;;8.27;;
40807;SDS011;26523;52.504;13.498;2023-12-04T08:58:25;20.05;;;6.85;;
40807;SDS011;26523;52.504;13.498;2023-12-04T09:00:50;18.30;;;6.63;;
40807;SDS011;26523;52.504;13.498;2023-12-04T09:03:16;18.70;;;6.38;;
40807;SDS011;26523;52.504;13.498;2023-12-04T09:05:42;17.77;;;7.50;;
40807;SDS011;26523;52.504;13.498;2023-12-04T09:08:07;24.15;;;8.90;;
40807;SDS011;26523;52.504;13.498;2023-12-04T09:10:33;18.60;;;6.70;;
40807;SDS011;26523;52.504;13.498;2023-12-04T09:12:59;17.85;;;7.88;;
40807;SDS011;26523;52.504;13.498;2023-12-04T09:15:25;23.63;;;8.25;;
40807;SDS011;26523;52.504;13.498;2023-12-04T09:17:50;16.65;;;6.88;;
40807;SDS011;26523;52.504;13.498;2023-12-04T09:20:16;17.02;;;6.38;;
40807;SDS011;26523;52.504;13.498;2023-12-04T09:22:42;18.85;;;9.02;;
40807;SDS011;26523;52.504;13.498;2023-12-04T09:25:07;18.73;;;8.07;;
40807;SDS011;26523;52.504;13.498;2023-12-04T09:27:36;22.60;;;7.30;;
40807;SDS011;26523;52.504;13.498;2023-12-04T09:30:02;16.73;;;8.10;;
40807;SDS011;26523;52.504;13.498;2023-12-04T09:32:29;22.13;;;8.07;;
40807;SDS011;26523;52.504;13.498;2023-12-04T09:34:55;20.85;;;7.78;;
40807;SDS011;26523;52.504;13.498;2023-12-04T09:37:21;19.50;;;6.93;;
40807;SDS011;26523;52.504;13.498;2023-12-04T09:39:46;18.45;;;7.32;;
40807;SDS011;26523;52.504;13.498;2023-12-04T09:42:14;19.58;;;6.68;;
40807;SDS011;26523;52.504;13.498;2023-12-04T09:44:43;20.02;;;7.65;;
40807;SDS011;26523;52.504;13.498;2023-12-04T09:47:09;21.48;;;7.13;;
40807;SDS011;26523;52.504;13.498;2023-12-04T09:49:35;22.10;;;6.25;;
40807;SDS011;26523;52.504;13.498;2023-12-04T09:52:02;17.65;;;6.85;;
40807;SDS011;26523;52.504;13.498;2023-12-04T09:54:28;14.20;;;5.13;;
40807;SDS011;26523;52.504;13.498;2023-12-04T09:56:54;18.42;;;7.28;;
40807;SDS011;26523;52.504;13.498;2023-12-04T09:59:20;17.08;;;6.95;;
40807;SDS011;26523;52.504;13.498;2023-12-04T10:01:52;18.02;;;7.05;;
40807;SDS011;26523;52.504;13.498;2023-12-04T10:04:17;14.02;;;6.20;;
40807;SDS011;26523;52.504;13.498;2023-12-04T10:06:44;18.20;;;6.38;;
40807;SDS011;26523;52.504;13.498;2023-12-04T10:09:10;21.20;;;7.70;;
40807;SDS011;26523;52.504;13.498;2023-12-04T10:11:41;15.60;;;6.63;;
40807;SDS011;26523;52.504;13.498;2023-12-04T10:14:14;14.32;;;6.10;;
40807;SDS011;26523;52.504;13.498;2023-12-04T10:16:41;17.55;;;6.55;;
40807;SDS011;26523;52.504;13.498;2023-12-04T10:19:16;13.60;;;5.55;;
40807;SDS011;26523;52.504;13.498;2023-12-04T10:22:00;18.80;;;6.20;;
40807;SDS011;26523;52.504;13.498;2023-12-04T10:24:29;17.58;;;5.32;;
40807;SDS011;26523;52.504;13.498;2023-12-04T10:27:00;13.45;;;5.35;;
40807;SDS011;26523;52.504;13.498;2023-12-04T10:29:28;15.65;;;6.25;;
40807;SDS011;26523;52.504;13.498;2023-12-04T10:31:55;13.98;;;5.38;;
40807;SDS011;26523;52.504;13.498;2023-12-04T10:34:23;20.88;;;7.13;;
40807;SDS011;26523;52.504;13.498;2023-12-04T10:36:51;11.43;;;5.22;;
40807;SDS011;26523;52.504;13.498;2023-12-04T10:39:17;17.67;;;5.78;;
40807;SDS011;26523;52.504;13.498;2023-12-04T10:41:43;13.90;;;5.13;;
40807;SDS011;26523;52.504;13.498;2023-12-04T10:44:09;10.30;;;4.82;;
40807;SDS011;26523;52.504;13.498;2023-12-04T10:46:38;15.98;;;5.30;;
40807;SDS011;26523;52.504;13.498;2023-12-04T10:49:06;14.57;;;5.72;;
40807;SDS011;26523;52.504;13.498;2023-12-04T10:51:34;14.45;;;5.30;;
40807;SDS011;26523;52.504;13.498;2023-12-04T10:54:00;16.35;;;6.63;;
40807;SDS011;26523;52.504;13.498;2023-12-04T10:56:27;15.30;;;6.28;;
40807;SDS011;26523;52.504;13.498;2023-12-04T10:58:58;19.63;;;5.90;;
40807;SDS011;26523;52.504;13.498;2023-12-04T11:01:29;16.35;;;5.55;;
40807;SDS011;26523;52.504;13.498;2023-12-04T11:03:57;10.85;;;5.22;;
40807;SDS011;26523;52.504;13.498;2023-12-04T11:06:24;14.07;;;5.75;;
40807;SDS011;26523;52.504;13.498;2023-12-04T11:08:53;15.73;;;5.28;;
40807;SDS011;26523;52.504;13.498;2023-12-04T11:11:26;15.75;;;5.68;;
40807;SDS011;26523;52.504;13.498;2023-12-04T11:13:59;18.85;;;5.93;;
40807;SDS011;26523;52.504;13.498;2023-12-04T11:19:20;18.70;;;5.55;;
40807;SDS011;26523;52.504;13.498;2023-12-04T11:22:00;14.48;;;5.25;;
40807;SDS011;26523;52.504;13.498;2023-12-04T11:24:27;14.07;;;5.88;;
40807;SDS011;26523;52.504;13.498;2023-12-04T11:26:53;11.98;;;5.60;;
40807;SDS011;26523;52.504;13.498;2023-12-04T11:29:19;16.17;;;5.85;;
40807;SDS011;26523;52.504;13.498;2023-12-04T11:31:46;16.65;;;5.57;;
40807;SDS011;26523;52.504;13.498;2023-12-04T11:34:12;12.68;;;4.88;;
40807;SDS011;26523;52.504;13.498;2023-12-04T11:36:38;15.48;;;5.97;;
40807;SDS011;26523;52.504;13.498;2023-12-04T11:39:08;14.52;;;5.15;;
40807;SDS011;26523;52.504;13.498;2023-12-04T11:41:37;10.50;;;4.80;;
40807;SDS011;26523;52.504;13.498;2023-12-04T11:44:05;12.52;;;5.20;;
40807;SDS011;26523;52.504;13.498;2023-12-04T11:46:39;11.95;;;5.00;;
40807;SDS011;26523;52.504;13.498;2023-12-04T11:49:29;10.05;;;4.25;;
40807;SDS011;26523;52.504;13.498;2023-12-04T11:52:06;13.02;;;4.90;;
40807;SDS011;26523;52.504;13.498;2023-12-04T11:57:39;14.57;;;5.20;;
40807;SDS011;26523;52.504;13.498;2023-12-04T12:02:33;14.25;;;5.20;;
40807;SDS011;26523;52.504;13.498;2023-12-04T12:04:59;13.95;;;4.90;;
40807;SDS011;26523;52.504;13.498;2023-12-04T12:07:24;12.23;;;4.97;;
40807;SDS011;26523;52.504;13.498;2023-12-04T12:09:50;13.68;;;4.95;;
40807;SDS011;26523;52.504;13.498;2023-12-04T12:12:15;12.55;;;4.70;;
40807;SDS011;26523;52.504;13.498;2023-12-04T12:14:42;15.13;;;5.65;;
40807;SDS011;26523;52.504;13.498;2023-12-04T12:17:07;11.10;;;4.28;;
40807;SDS011;26523;52.504;13.498;2023-12-04T12:19:33;15.70;;;5.13;;
40807;SDS011;26523;52.504;13.498;2023-12-04T12:21:59;10.60;;;4.95;;
40807;SDS011;26523;52.504;13.498;2023-12-04T12:24:25;13.98;;;5.43;;
40807;SDS011;26523;52.504;13.498;2023-12-04T12:26:51;13.48;;;5.00;;
40807;SDS011;26523;52.504;13.498;2023-12-04T12:29:17;14.10;;;4.80;;
40807;SDS011;26523;52.504;13.498;2023-12-04T12:31:42;12.40;;;4.90;;
40807;SDS011;26523;52.504;13.498;2023-12-04T12:34:08;15.50;;;5.90;;
40807;SDS011;26523;52.504;13.498;2023-12-04T12:36:34;11.18;;;5.03;;
40807;SDS011;26523;52.504;13.498;2023-12-04T12:39:00;10.73;;;5.38;;
40807;SDS011;26523;52.504;13.498;2023-12-04T12:41:28;11.70;;;4.82;;
40807;SDS011;26523;52.504;13.498;2023-12-04T12:43:54;13.50;;;5.47;;
40807;SDS011;26523;52.504;13.498;2023-12-04T12:46:21;9.52;;;4.05;;
40807;SDS011;26523;52.504;13.498;2023-12-04T12:48:47;12.15;;;4.47;;
40807;SDS011;26523;52.504;13.498;2023-12-04T12:51:13;11.88;;;5.28;;
40807;SDS011;26523;52.504;13.498;2023-12-04T12:53:39;11.02;;;4.28;;
40807;SDS011;26523;52.504;13.498;2023-12-04T12:56:04;12.07;;;4.68;;
40807;SDS011;26523;52.504;13.498;2023-12-04T12:58:31;14.55;;;5.68;;
40807;SDS011;26523;52.504;13.498;2023-12-04T13:00:56;14.73;;;5.10;;
40807;SDS011;26523;52.504;13.498;2023-12-04T13:03:22;12.30;;;5.05;;
40807;SDS011;26523;52.504;13.498;2023-12-04T13:05:48;10.38;;;4.85;;
40807;SDS011;26523;52.504;13.498;2023-12-04T13:08:13;14.57;;;4.85;;
40807;SDS011;26523;52.504;13.498;2023-12-04T13:10:42;14.55;;;5.85;;
40807;SDS011;26523;52.504;13.498;2023-12-04T13:13:14;16.33;;;5.57;;
40807;SDS011;26523;52.504;13.498;2023-12-04T13:15:40;10.75;;;4.38;;
40807;SDS011;26523;52.504;13.498;2023-12-04T13:18:07;12.95;;;5.18;;
40807;SDS011;26523;52.504;13.498;2023-12-04T13:20:33;10.63;;;4.90;;
40807;SDS011;26523;52.504;13.498;2023-12-04T13:22:59;14.43;;;5.35;;
40807;SDS011;26523;52.504;13.498;2023-12-04T13:25:25;16.30;;;5.80;;
40807;SDS011;26523;52.504;13.498;2023-12-04T13:27:51;12.07;;;5.18;;
40807;SDS011;26523;52.504;13.498;2023-12-04T13:30:16;16.23;;;5.43;;
40807;SDS011;26523;52.504;13.498;2023-12-04T13:32:42;11.95;;;5.72;;
40807;SDS011;26523;52.504;13.498;2023-12-04T13:35:08;10.68;;;4.95;;
40807;SDS011;26523;52.504;13.498;2023-12-04T13:37:34;14.65;;;5.32;;
40807;SDS011;26523;52.504;13.498;2023-12-04T13:40:02;10.70;;;5.00;;
40807;SDS011;26523;52.504;13.498;2023-12-04T13:42:40;13.32;;;5.38;;
40807;SDS011;26523;52.504;13.498;2023-12-04T13:47:50;14.95;;;5.05;;
40807;SDS011;26523;52.504;13.498;2023-12-04T13:50:18;11.93;;;4.40;;
40807;SDS011;26523;52.504;13.498;2023-12-04T13:52:43;13.63;;;6.38;;
40807;SDS011;26523;52.504;13.498;2023-12-04T13:55:09;13.88;;;6.07;;
40807;SDS011;26523;52.504;13.498;2023-12-04T13:57:46;17.08;;;5.43;;
40807;SDS011;26523;52.504;13.498;2023-12-04T14:00:38;13.50;;;5.00;;
40807;SDS011;26523;52.504;13.498;2023-12-04T14:03:06;14.80;;;5.43;;
40807;SDS011;26523;52.504;13.498;2023-12-04T14:05:32;13.82;;;5.15;;
40807;SDS011;26523;52.504;13.498;2023-12-04T14:07:59;14.07;;;5.22;;
40807;SDS011;26523;52.504;13.498;2023-12-04T14:10:25;13.93;;;5.78;;
40807;SDS011;26523;52.504;13.498;2023-12-04T14:12:52;10.73;;;4.75;;
40807;SDS011;26523;52.504;13.498;2023-12-04T14:15:18;17.30;;;6.47;;
40807;SDS011;26523;52.504;13.498;2023-12-04T14:17:45;15.18;;;5.60;;
40807;SDS011;26523;52.504;13.498;2023-12-04T14:20:12;13.43;;;5.43;;
40807;SDS011;26523;52.504;13.498;2023-12-04T14:22:43;16.27;;;5.00;;
40807;SDS011;26523;52.504;13.498;2023-12-04T14:25:12;14.13;;;5.18;;
40807;SDS011;26523;52.504;13.498;2023-12-04T14:27:38;14.10;;;5.18;;